Flight Track Log - Related Links

Times and Time Zones

All times are in EDT time to prevent confusion due to time zone crossing. See the SWA2955 flight status page for this flight to view local times or setup timezone preferences in your user account.

Time Position Orientation Groundspeed Altitude Reporting Facility
EDT Latitude Longitude Course Direction KTS MPH feet Rate Location/Type
Mon 07:03:58 AM 40.7728 -73.1306 90° East 151 174 1,500  Level Boston Center
Mon 07:04:58 AM 40.7397 -73.0647 124° Southeast 142 163 3,000 1,835 Climbing Boston Center
Mon 07:05:59 AM 40.7425 -72.9714 88° East 179 206 5,200 2,459 Climbing Boston Center
Mon 07:07:00 AM 40.7408 -72.8675 91° East 222 255 8,000 2,826 Climbing Boston Center
Mon 07:08:00 AM 40.7328 -72.7494 95° East 275 316 10,900 3,051 Climbing Boston Center
Mon 07:08:58 AM 40.6725 -72.6728 136° Southeast 307 353 14,000 2,797 Climbing Boston Center
Mon 07:09:00 AM 40.7333 -72.5475 90° East  Level FlightAware Approximate
Mon 07:09:58 AM 40.5975 -72.7244 208° Southwest 214 246 16,400  Level Boston Center
Mon 07:10:59 AM 40.5242 -72.8086 221° Southwest 253 291 19,200 2,803 Climbing Boston Center
Mon 07:12:00 AM 40.4511 -72.8928 221° Southwest 336 387 22,100 2,723 Climbing Boston Center
Mon 07:12:58 AM 40.3736 -72.9822 221° Southwest 354 407 24,600 2,176 Climbing Boston Center
Mon 07:15:13 AM 40.1872 -73.1908 221° Southwest 388 447 29,100 2,031 Climbing Washington Center
Mon 07:16:13 AM 40.1017 -73.2861 220° Southwest 406 467 31,200 2,000 Climbing Washington Center
Mon 07:17:13 AM 40.0161 -73.3811 220° Southwest 406 467 33,100 1,600 Climbing Washington Center
Mon 07:18:13 AM 39.9281 -73.4758 220° Southwest 411 473 34,400 1,500 Climbing Washington Center
Mon 07:19:13 AM 39.8381 -73.5703 219° Southwest 416 479 36,100 1,550 Climbing Washington Center
Mon 07:20:13 AM 39.7500 -73.6700 221° Southwest 416 479 37,500 950 Climbing Washington Center
Mon 07:21:13 AM 39.6600 -73.7667 220° Southwest 416 479 38,000 250 Climbing Washington Center
Mon 07:22:13 AM 39.5739 -73.8631 221° Southwest 421 484 38,000  Level Washington Center
Mon 07:23:13 AM 39.4878 -73.9567 220° Southwest 421 484 38,000  Level Washington Center
Mon 07:24:13 AM 39.3994 -74.0528 220° Southwest 421 484 38,000  Level Washington Center
Mon 07:25:13 AM 39.3131 -74.1483 221° Southwest 421 484 38,000  Level Washington Center
Mon 07:26:13 AM 39.2225 -74.2414 219° Southwest 421 484 38,000  Level Washington Center
Mon 07:27:13 AM 39.1253 -74.3181 211° Southwest 421 484 38,000  Level Washington Center
Mon 07:28:13 AM 39.0281 -74.3972 212° Southwest 421 484 38,000  Level Washington Center
Mon 07:29:13 AM 38.9289 -74.4736 211° Southwest 416 479 38,000  Level Washington Center
Mon 07:30:13 AM 38.8317 -74.5550 213° Southwest 416 479 38,000  Level Washington Center
Mon 07:31:13 AM 38.7322 -74.6308 211° Southwest 416 479 38,000  Level Washington Center
Mon 07:32:13 AM 38.6328 -74.7119 213° Southwest 426 490 38,000  Level Washington Center
Mon 07:33:13 AM 38.5331 -74.7875 211° Southwest 426 490 38,000  Level Washington Center
Mon 07:34:13 AM 38.4272 -74.8469 204° Southwest 419 482 38,000  Level Washington Center
Mon 07:35:13 AM 38.3192 -74.9089 204° Southwest 419 482 38,000  Level Washington Center
Mon 07:36:14 AM 38.2133 -74.9761 207° Southwest 419 482 38,000  Level Washington Center
Mon 07:37:13 AM 38.1031 -75.0325 202° Southwest 419 482 38,000  Level Washington Center
Mon 07:38:14 AM 37.9989 -75.0964 206° Southwest 419 482 38,000 700 Level Washington Center
Mon 07:39:13 AM 37.8886 -75.1550 203° Southwest 424 488 39,400 1,008 Climbing Washington Center
Mon 07:40:13 AM 37.7867 -75.2186 206° Southwest 424 488 40,000 300 Climbing Washington Center
Mon 07:41:13 AM 37.6806 -75.2744 203° Southwest 419 482 40,000  Level Washington Center
Mon 07:42:13 AM 37.5742 -75.3378 205° Southwest 424 488 40,000  Level Washington Center
Mon 07:43:13 AM 37.4681 -75.3956 203° Southwest 424 488 40,000  Level Washington Center
Mon 07:44:13 AM 37.3742 -75.4481 204° Southwest 418 481 40,000  Level Washington Center
Mon 07:45:13 AM 37.2678 -75.5058 203° Southwest 418 481 40,000  Level Washington Center
Mon 07:46:13 AM 37.1617 -75.5633 203° Southwest 418 481 40,000  Level Washington Center
Mon 07:47:13 AM 37.0553 -75.6231 204° Southwest 423 487 40,000  Level Washington Center
Mon 07:48:13 AM 36.9486 -75.6803 203° Southwest 423 487 40,000  Level Washington Center
Mon 07:49:13 AM 36.8422 -75.7372 203° Southwest 423 487 40,000  Level Washington Center
Mon 07:50:13 AM 36.7336 -75.7992 205° Southwest 423 487 40,000  Level Washington Center
Mon 07:51:13 AM 36.6250 -75.8586 204° Southwest 423 487 40,000  Level Washington Center
Mon 07:52:13 AM 36.5186 -75.9150 203° Southwest 428 493 40,000  Level Washington Center
Mon 07:53:13 AM 36.4119 -75.9764 205° Southwest 422 486 40,000  Level Washington Center
Mon 07:54:13 AM 36.3053 -76.0353 204° Southwest 422 486 40,000  Level Washington Center
Mon 07:55:13 AM 36.1967 -76.0861 201° Southwest 422 486 40,000  Level Washington Center
Mon 07:56:13 AM 36.0900 -76.1472 205° Southwest 422 486 40,000  Level Washington Center
Mon 07:57:13 AM 35.9856 -76.2031 203° Southwest 422 486 40,000  Level Washington Center
Mon 07:58:13 AM 35.8786 -76.2636 205° Southwest 422 486 40,000  Level Washington Center
Mon 07:59:13 AM 35.7700 -76.3192 203° Southwest 422 486 40,000  Level Washington Center
Mon 08:00:13 AM 35.6653 -76.3744 203° Southwest 422 486 40,000  Level Washington Center
Mon 08:01:14 AM 35.5583 -76.4319 204° Southwest 422 486 40,000  Level Washington Center
Mon 08:02:14 AM 35.4517 -76.4897 204° Southwest 422 486 40,000  Level Washington Center
Mon 08:03:13 AM 35.3447 -76.5469 204° Southwest 422 486 40,000  Level Washington Center
Mon 08:04:14 AM 35.2400 -76.6017 203° Southwest 422 486 40,000  Level Washington Center
Mon 08:05:14 AM 35.1331 -76.6589 204° Southwest 422 486 40,000  Level Washington Center
Mon 08:06:13 AM 35.0283 -76.7183 205° Southwest 422 486 40,000  Level Washington Center
Mon 08:07:13 AM 34.9192 -76.7725 202° Southwest 422 486 40,000  Level Washington Center
Mon 08:08:13 AM 34.8122 -76.8292 204° Southwest 422 486 40,000  Level Washington Center
Mon 08:09:13 AM 34.7053 -76.8831 203° Southwest 422 486 40,000  Level Washington Center
Mon 08:10:13 AM 34.5983 -76.9394 203° Southwest 422 486 40,000  Level Washington Center
Mon 08:11:13 AM 34.4953 -76.9906 202° Southwest 422 486 40,000  Level Washington Center
Mon 08:12:14 AM 34.3903 -77.0467 204° Southwest 417 480 40,000  Level Washington Center
Mon 08:14:03 AM 34.1856 -77.1519 203° Southwest 425 489 40,000  Level Jacksonville Center
Mon 08:15:03 AM 34.0817 -77.2039 202° Southwest 425 489 40,000  Level Jacksonville Center
Mon 08:16:03 AM 33.9878 -77.2500 202° Southwest 420 483 40,000  Level Jacksonville Center
Mon 08:17:03 AM 33.8794 -77.3044 203° Southwest 420 483 40,000  Level Jacksonville Center
Mon 08:18:03 AM 33.7733 -77.3589 203° Southwest 420 483 40,000  Level Jacksonville Center
Mon 08:19:03 AM 33.6672 -77.4128 203° Southwest 415 478 40,000  Level Jacksonville Center
Mon 08:20:03 AM 33.5611 -77.4669 203° Southwest 415 478 40,000  Level Jacksonville Center
Mon 08:21:03 AM 33.4592 -77.5203 204° Southwest 410 472 40,000  Level Jacksonville Center
Mon 08:22:03 AM 33.3508 -77.5717 202° Southwest 410 472 40,000  Level Jacksonville Center
Mon 08:23:03 AM 33.2444 -77.6228 202° Southwest 410 472 40,000  Level Jacksonville Center
Mon 08:24:03 AM 33.1403 -77.6783 204° Southwest 410 472 40,000  Level Jacksonville Center
Mon 08:25:03 AM 33.0339 -77.7317 203° Southwest 410 472 40,000  Level Jacksonville Center
Mon 08:26:03 AM 32.9294 -77.7822 202° Southwest 410 472 40,000  Level Jacksonville Center
Mon 08:27:03 AM 32.8231 -77.8353 203° Southwest 410 472 40,000  Level Jacksonville Center
Mon 08:28:03 AM 32.7186 -77.8856 202° Southwest 410 472 40,000  Level Jacksonville Center
Mon 08:29:03 AM 32.6125 -77.9408 204° Southwest 410 472 40,000  Level Jacksonville Center
Mon 08:30:03 AM 32.5058 -77.9933 203° Southwest 415 478 40,000  Level Jacksonville Center
Mon 08:31:03 AM 32.3972 -78.0433 201° Southwest 415 478 40,000  Level Jacksonville Center
Mon 08:32:03 AM 32.2886 -78.0958 202° Southwest 415 478 40,000  Level Jacksonville Center
Mon 08:33:03 AM 32.1822 -78.1531 204° Southwest 420 483 40,000  Level Jacksonville Center
Mon 08:34:03 AM 32.0736 -78.2053 202° Southwest 425 489 40,000  Level Jacksonville Center
Mon 08:35:03 AM 31.9547 -78.2650 203° Southwest 425 489 40,000  Level Jacksonville Center
Mon 08:36:03 AM 31.8500 -78.3144 202° Southwest 424 488 40,000  Level Jacksonville Center
Mon 08:37:03 AM 31.7353 -78.3714 203° Southwest 431 496 40,000  Level Jacksonville Center
Mon 08:38:03 AM 31.6264 -78.4231 202° Southwest 426 490 40,000  Level Jacksonville Center
Mon 08:39:03 AM 31.5175 -78.4769 203° Southwest 425 489 40,000  Level Jacksonville Center
Mon 08:40:03 AM 31.4067 -78.5308 203° Southwest 425 489 40,000  Level Jacksonville Center
Mon 08:41:03 AM 31.2958 -78.5847 203° Southwest 430 495 40,000  Level Jacksonville Center
Mon 08:42:03 AM 31.1889 -78.6333 201° Southwest 425 489 40,000  Level Jacksonville Center
Mon 08:43:03 AM 31.0800 -78.6842 202° Southwest 425 489 40,000  Level Jacksonville Center
Mon 08:44:03 AM 30.9711 -78.7400 204° Southwest 432 497 40,000  Level Jacksonville Center
Mon 08:45:03 AM 30.8622 -78.7908 202° Southwest 427 491 40,000  Level Jacksonville Center
Mon 08:46:03 AM 30.7511 -78.8414 201° Southwest 422 486 40,000  Level Jacksonville Center
Mon 08:47:03 AM 30.6419 -78.8894 201° Southwest 422 486 40,000  Level Jacksonville Center
Mon 08:47:32 AM 30.6075 -78.9108 208° Southwest 420 483 40,000  Level Miami Center
Mon 08:48:32 AM 30.5003 -78.9592 201° Southwest 432 497 40,000  Level Miami Center
Mon 08:49:32 AM 30.3850 -79.0028 198° South 432 497 40,000  Level Miami Center
Mon 08:50:32 AM 30.2764 -79.0342 194° South 427 491 40,000  Level Miami Center
Mon 08:51:32 AM 30.1569 -79.0653 193° South 427 491 40,000  Level Miami Center
Mon 08:52:32 AM 30.0397 -79.0964 193° South 434 499 40,000  Level Miami Center
Mon 08:53:32 AM 29.9286 -79.1300 195° South 426 490 40,000  Level Miami Center
Mon 08:54:32 AM 29.8136 -79.1611 193° South 419 482 40,000 -550 Level Miami Center
Mon 08:55:32 AM 29.7003 -79.1944 194° South 424 488 38,900 -1,000 Descending Miami Center
Mon 08:56:32 AM 29.5831 -79.2231 192° South 431 496 38,000 -950 Descending Miami Center
Mon 08:57:32 AM 29.4575 -79.2442 188° South 438 504 37,000 -950 Descending Miami Center
Mon 08:58:32 AM 29.3444 -79.2797 195° South 438 504 36,100 -950 Descending Miami Center
Mon 08:59:32 AM 29.2272 -79.3081 192° South 438 504 35,100 -950 Descending Miami Center
Mon 09:00:32 AM 29.1078 -79.3386 193° South 438 504 34,200 -950 Descending Miami Center
Mon 09:01:32 AM 28.9883 -79.3667 192° South 433 498 33,200 -950 Descending Miami Center
Mon 09:02:32 AM 28.8583 -79.3994 192° South 433 498 32,300 -1,000 Descending Miami Center
Mon 09:03:32 AM 28.7367 -79.4297 192° South 438 504 31,200 -1,050 Descending Miami Center
Mon 09:04:32 AM 28.6153 -79.4600 192° South 444 511 30,200 -1,000 Descending Miami Center
Mon 09:05:32 AM 28.4958 -79.4881 192° South 444 511 29,200 -1,000 Descending Miami Center
Mon 09:06:32 AM 28.3825 -79.5158 192° South 434 499 28,200 -1,050 Descending Miami Center
Mon 09:07:32 AM 28.2692 -79.5464 193° South 424 488 27,100 -1,050 Descending Miami Center
Mon 09:08:32 AM 28.1581 -79.5719 191° South 424 488 26,100 -1,000 Descending Miami Center
Mon 09:09:32 AM 28.0469 -79.5997 192° South 413 475 25,100 -1,000 Descending Miami Center
Mon 09:10:32 AM 27.9358 -79.6253 191° South 413 475 24,100 -550 Descending Miami Center
Mon 09:11:32 AM 27.8267 -79.6508 192° South 407 468 24,000 -50 Descending Miami Center
Mon 09:12:32 AM 27.7197 -79.6789 193° South 402 463 24,000  Level Miami Center
Mon 09:13:32 AM 27.6192 -79.7019 191° South 407 468 24,000 -100 Level Miami Center
Mon 09:14:32 AM 27.5100 -79.7275 192° South 407 468 23,800 -650 Descending Miami Center
Mon 09:15:32 AM 27.3850 -79.7150 175° South 413 475 22,700 -1,050 Descending Miami Center
Mon 09:16:32 AM 27.2725 -79.6983 172° South 408 470 21,700 -1,000 Descending Miami Center
Mon 09:17:32 AM 27.1639 -79.6956 179° South 401 461 20,700 -1,000 Descending Miami Center
Mon 09:18:32 AM 27.0658 -79.6956 180° South 396 456 19,700 -950 Descending Miami Center
Mon 09:19:32 AM 26.9594 -79.6883 177° South 390 449 18,800 -1,250 Descending Miami Center
Mon 09:20:32 AM 26.8425 -79.6853 179° South 379 436 17,200 -2,018 Descending Miami Center
Mon 09:21:22 AM 26.7506 -79.6903 183° South 383 441 15,100 -2,621 Descending Miami Center
Mon 09:21:59 AM 26.6894 -79.7144 199° South 373 429 13,400 -2,571 Descending Miami Center
Mon 09:22:32 AM 26.6389 -79.7364 201° Southwest 377 434 12,100 -1,970 Descending Miami Center
Mon 09:23:06 AM 26.5819 -79.7650 204° Southwest 360 414 11,200 -1,200 Descending Miami Center
Mon 09:23:32 AM 26.5589 -79.7739 199° South 361 415 10,900 -689 Descending Miami Center
Mon 09:24:07 AM 26.4997 -79.8050 205° Southwest 303 349 10,500 -800 Descending Miami Center
Mon 09:24:32 AM 26.4703 -79.8158 198° South 323 372 10,100 -1,869 Descending Miami Center
Mon 09:25:08 AM 26.4258 -79.8403 206° Southwest 286 329 8,600 -2,000 Descending Miami Center
Mon 09:25:32 AM 26.4069 -79.8467 197° South 294 338 8,100 -590 Descending Miami Center
Mon 09:26:09 AM 26.3583 -79.8825 213° Southwest 288 331 8,000 -600 Descending Miami Center
Mon 09:26:32 AM 26.3328 -79.9050 218° Southwest 289 333 7,500 -1,377 Descending Miami Center
Mon 09:27:10 AM 26.2922 -79.9458 222° Southwest 292 336 6,600 -1,200 Descending Miami Center
Mon 09:27:32 AM 26.2794 -79.9569 218° Southwest 294 338 6,300 -590 Descending Miami Center
Mon 09:28:11 AM 26.2325 -80.0044 222° Southwest 271 312 6,000 -300 Descending Miami Center
Mon 09:28:32 AM 26.2258 -80.0136 231° Southwest 285 328 6,000 107 Level Miami Center
Mon 09:29:07 AM 26.1833 -80.0517 219° Southwest 258 297 6,100  Climbing Miami Center
Mon 09:29:32 AM 26.1767 -80.0700 248° West 273 314 6,000  Descending Miami Center
Mon 09:30:08 AM 26.1586 -80.1250 250° West 254 292 6,100  Climbing Miami Center
Mon 09:30:32 AM 26.1561 -80.1436 261° West 251 289 6,000 -492 Descending Miami Center
Mon 09:31:09 AM 26.1486 -80.1989 261° West 225 259 5,600 -865 Descending Miami Center
Mon 09:32:16 AM 26.1489 -80.2797 270° West 230 265 4,500 -750 Descending Miami Center
Mon 09:33:17 AM 26.1472 -80.3517 269° West 233 268 4,000 -246 Descending Miami Center
Mon 09:34:18 AM 26.1475 -80.4233 270° West 232 267 4,000 -146 Level Miami Center
Mon 09:35:20 AM 26.1072 -80.4567 217° Southwest 185 213 3,700 -488 Descending Miami Center
Mon 09:36:21 AM 26.0789 -80.4189 130° Southeast 169 194 3,000 -344 Descending Miami Center
Mon 09:37:22 AM 26.0758 -80.3681 94° East 170 196 3,000 -281 Level Miami Center
Mon 09:38:29 AM 26.0753 -80.3078 91° East 170 196 2,400 -703 Descending Miami Center
Mon 09:39:30 AM 26.0744 -80.2547 91° East 170 196 1,500 -836 Descending Miami Center
Mon 09:40:31 AM 26.0756 -80.2061 89° East 144 166 700 -787 Descending Miami Center
Mon 09:42:00 AM 26.0667 -80.1500 103° East  Level FlightAware Approximate
Mon 09:49:00 AM 26.0726 -80.1527 103° East  Level Estimated

Login

Don't have an account? Register now (free) for customized features, flight alerts, and more!